sensor_id;sensor_type;location;lat;lon;timestamp;temperature;humidity
11055;DHT22;5580;50.106;8.702;2023-05-07T00:01:43;18.20;99.90
11055;DHT22;5580;50.106;8.702;2023-05-07T00:04:09;18.20;99.90
11055;DHT22;5580;50.106;8.702;2023-05-07T00:06:34;18.10;99.90
11055;DHT22;5580;50.106;8.702;2023-05-07T00:09:00;18.10;99.90
11055;DHT22;5580;50.106;8.702;2023-05-07T00:11:27;18.10;99.90
11055;DHT22;5580;50.106;8.702;2023-05-07T00:13:53;18.00;99.90
11055;DHT22;5580;50.106;8.702;2023-05-07T00:16:18;18.00;99.90
11055;DHT22;5580;50.106;8.702;2023-05-07T00:18:44;18.00;99.90
11055;DHT22;5580;50.106;8.702;2023-05-07T00:21:10;18.00;99.90
11055;DHT22;5580;50.106;8.702;2023-05-07T00:23:36;18.00;99.90
11055;DHT22;5580;50.106;8.702;2023-05-07T00:26:02;18.00;99.90
11055;DHT22;5580;50.106;8.702;2023-05-07T00:28:28;18.00;99.90
11055;DHT22;5580;50.106;8.702;2023-05-07T00:30:53;17.90;99.90
11055;DHT22;5580;50.106;8.702;2023-05-07T00:33:19;17.90;99.90
11055;DHT22;5580;50.106;8.702;2023-05-07T00:35:46;17.90;99.90
11055;DHT22;5580;50.106;8.702;2023-05-07T00:38:11;17.90;99.90
11055;DHT22;5580;50.106;8.702;2023-05-07T00:40:37;17.90;99.90
11055;DHT22;5580;50.106;8.702;2023-05-07T00:43:02;17.90;99.90
11055;DHT22;5580;50.106;8.702;2023-05-07T00:45:29;18.00;99.90
11055;DHT22;5580;50.106;8.702;2023-05-07T00:47:57;18.00;99.90
11055;DHT22;5580;50.106;8.702;2023-05-07T00:50:23;18.00;99.90
11055;DHT22;5580;50.106;8.702;2023-05-07T00:52:49;18.00;99.90
11055;DHT22;5580;50.106;8.702;2023-05-07T00:55:15;18.10;99.90
11055;DHT22;5580;50.106;8.702;2023-05-07T00:57:41;18.00;99.90
11055;DHT22;5580;50.106;8.702;2023-05-07T01:00:08;18.00;99.90
11055;DHT22;5580;50.106;8.702;2023-05-07T01:02:35;17.90;99.90
11055;DHT22;5580;50.106;8.702;2023-05-07T01:05:02;17.90;99.90
11055;DHT22;5580;50.106;8.702;2023-05-07T01:07:31;17.90;99.90
11055;DHT22;5580;50.106;8.702;2023-05-07T01:09:57;17.80;99.90
11055;DHT22;5580;50.106;8.702;2023-05-07T01:12:23;17.80;99.90
11055;DHT22;5580;50.106;8.702;2023-05-07T01:14:49;17.70;99.90
11055;DHT22;5580;50.106;8.702;2023-05-07T01:17:16;17.70;99.90
11055;DHT22;5580;50.106;8.702;2023-05-07T01:19:42;17.70;99.90
11055;DHT22;5580;50.106;8.702;2023-05-07T01:22:09;17.70;99.90
11055;DHT22;5580;50.106;8.702;2023-05-07T01:24:37;17.60;99.90
11055;DHT22;5580;50.106;8.702;2023-05-07T01:27:03;17.60;99.90
11055;DHT22;5580;50.106;8.702;2023-05-07T01:29:29;17.60;99.90
11055;DHT22;5580;50.106;8.702;2023-05-07T01:31:56;17.60;99.90
11055;DHT22;5580;50.106;8.702;2023-05-07T01:34:25;17.60;99.90
11055;DHT22;5580;50.106;8.702;2023-05-07T01:36:53;17.60;99.90
11055;DHT22;5580;50.106;8.702;2023-05-07T01:39:18;17.60;99.90
11055;DHT22;5580;50.106;8.702;2023-05-07T01:41:45;17.60;99.90
11055;DHT22;5580;50.106;8.702;2023-05-07T01:44:12;17.60;99.90
11055;DHT22;5580;50.106;8.702;2023-05-07T01:46:38;17.60;99.90
11055;DHT22;5580;50.106;8.702;2023-05-07T01:49:04;17.60;99.90
11055;DHT22;5580;50.106;8.702;2023-05-07T01:51:30;17.70;99.90
11055;DHT22;5580;50.106;8.702;2023-05-07T01:53:56;17.80;99.90
11055;DHT22;5580;50.106;8.702;2023-05-07T01:56:24;17.80;99.90
11055;DHT22;5580;50.106;8.702;2023-05-07T01:58:50;17.80;99.90
11055;DHT22;5580;50.106;8.702;2023-05-07T02:01:17;17.70;99.90
11055;DHT22;5580;50.106;8.702;2023-05-07T02:03:43;17.70;99.90
11055;DHT22;5580;50.106;8.702;2023-05-07T02:06:09;17.80;99.90
11055;DHT22;5580;50.106;8.702;2023-05-07T02:08:34;17.80;99.90
11055;DHT22;5580;50.106;8.702;2023-05-07T02:11:00;17.70;99.90
11055;DHT22;5580;50.106;8.702;2023-05-07T02:13:31;17.70;99.90
11055;DHT22;5580;50.106;8.702;2023-05-07T02:15:57;17.60;99.90
11055;DHT22;5580;50.106;8.702;2023-05-07T02:18:22;17.60;99.90
11055;DHT22;5580;50.106;8.702;2023-05-07T02:20:48;17.60;99.90
11055;DHT22;5580;50.106;8.702;2023-05-07T02:23:14;17.50;99.90
11055;DHT22;5580;50.106;8.702;2023-05-07T02:25:39;17.50;99.90
11055;DHT22;5580;50.106;8.702;2023-05-07T02:28:05;17.50;99.90
11055;DHT22;5580;50.106;8.702;2023-05-07T02:30:31;17.50;99.90
11055;DHT22;5580;50.106;8.702;2023-05-07T02:32:57;17.50;99.90
11055;DHT22;5580;50.106;8.702;2023-05-07T02:35:24;17.40;99.90
11055;DHT22;5580;50.106;8.702;2023-05-07T02:37:50;17.50;99.90
11055;DHT22;5580;50.106;8.702;2023-05-07T02:40:15;17.40;99.90
11055;DHT22;5580;50.106;8.702;2023-05-07T02:42:41;17.40;99.90
11055;DHT22;5580;50.106;8.702;2023-05-07T02:45:07;17.40;99.90
11055;DHT22;5580;50.106;8.702;2023-05-07T02:47:33;17.40;99.90
11055;DHT22;5580;50.106;8.702;2023-05-07T02:49:58;17.40;99.90
11055;DHT22;5580;50.106;8.702;2023-05-07T02:52:24;17.40;99.90
11055;DHT22;5580;50.106;8.702;2023-05-07T02:54:49;17.40;99.90
11055;DHT22;5580;50.106;8.702;2023-05-07T02:57:15;17.40;99.90
11055;DHT22;5580;50.106;8.702;2023-05-07T02:59:42;17.40;99.90
11055;DHT22;5580;50.106;8.702;2023-05-07T03:02:08;17.50;99.90
11055;DHT22;5580;50.106;8.702;2023-05-07T03:04:33;17.50;99.90
11055;DHT22;5580;50.106;8.702;2023-05-07T03:06:59;17.50;99.90
11055;DHT22;5580;50.106;8.702;2023-05-07T03:09:24;17.50;99.90
11055;DHT22;5580;50.106;8.702;2023-05-07T03:11:50;17.50;99.90
11055;DHT22;5580;50.106;8.702;2023-05-07T03:14:15;17.50;99.90
11055;DHT22;5580;50.106;8.702;2023-05-07T03:16:41;17.40;99.90
11055;DHT22;5580;50.106;8.702;2023-05-07T03:19:06;17.50;99.90
11055;DHT22;5580;50.106;8.702;2023-05-07T03:21:32;17.40;99.90
11055;DHT22;5580;50.106;8.702;2023-05-07T03:23:59;17.40;99.90
11055;DHT22;5580;50.106;8.702;2023-05-07T03:26:24;17.30;99.90
11055;DHT22;5580;50.106;8.702;2023-05-07T03:28:51;17.30;99.90
11055;DHT22;5580;50.106;8.702;2023-05-07T03:31:16;17.30;99.90
11055;DHT22;5580;50.106;8.702;2023-05-07T03:33:57;17.30;99.90
11055;DHT22;5580;50.106;8.702;2023-05-07T03:36:23;17.30;99.90
11055;DHT22;5580;50.106;8.702;2023-05-07T03:38:49;17.30;99.90
11055;DHT22;5580;50.106;8.702;2023-05-07T03:41:15;17.50;99.90
11055;DHT22;5580;50.106;8.702;2023-05-07T03:43:40;17.50;99.90
11055;DHT22;5580;50.106;8.702;2023-05-07T03:46:06;17.50;99.90
11055;DHT22;5580;50.106;8.702;2023-05-07T03:48:31;17.40;99.90
11055;DHT22;5580;50.106;8.702;2023-05-07T03:50:58;17.40;99.90
11055;DHT22;5580;50.106;8.702;2023-05-07T03:53:24;17.40;99.90
11055;DHT22;5580;50.106;8.702;2023-05-07T03:55:49;17.30;99.90
11055;DHT22;5580;50.106;8.702;2023-05-07T03:58:15;17.30;99.90
11055;DHT22;5580;50.106;8.702;2023-05-07T04:00:41;17.30;99.90
11055;DHT22;5580;50.106;8.702;2023-05-07T04:03:06;17.20;99.90
11055;DHT22;5580;50.106;8.702;2023-05-07T04:05:32;17.10;99.90
11055;DHT22;5580;50.106;8.702;2023-05-07T04:07:58;17.10;99.90
11055;DHT22;5580;50.106;8.702;2023-05-07T04:10:24;17.00;99.90
11055;DHT22;5580;50.106;8.702;2023-05-07T04:12:50;16.90;99.90
11055;DHT22;5580;50.106;8.702;2023-05-07T04:15:16;16.90;99.90
11055;DHT22;5580;50.106;8.702;2023-05-07T04:17:41;16.90;99.90
11055;DHT22;5580;50.106;8.702;2023-05-07T04:20:09;16.90;99.90
11055;DHT22;5580;50.106;8.702;2023-05-07T04:22:36;17.00;99.90
11055;DHT22;5580;50.106;8.702;2023-05-07T04:25:01;17.10;99.90
11055;DHT22;5580;50.106;8.702;2023-05-07T04:27:27;17.00;99.90
11055;DHT22;5580;50.106;8.702;2023-05-07T04:29:53;17.00;99.90
11055;DHT22;5580;50.106;8.702;2023-05-07T04:32:21;17.00;99.90
11055;DHT22;5580;50.106;8.702;2023-05-07T04:34:46;17.00;99.90
11055;DHT22;5580;50.106;8.702;2023-05-07T04:37:12;17.00;99.90
11055;DHT22;5580;50.106;8.702;2023-05-07T04:39:38;17.00;99.90
11055;DHT22;5580;50.106;8.702;2023-05-07T04:42:03;17.00;99.90
11055;DHT22;5580;50.106;8.702;2023-05-07T04:44:29;17.00;99.90
11055;DHT22;5580;50.106;8.702;2023-05-07T04:46:56;17.00;99.90
11055;DHT22;5580;50.106;8.702;2023-05-07T04:49:22;17.10;99.90
11055;DHT22;5580;50.106;8.702;2023-05-07T04:51:47;17.10;99.90
11055;DHT22;5580;50.106;8.702;2023-05-07T04:54:13;17.20;99.90
11055;DHT22;5580;50.106;8.702;2023-05-07T04:56:38;17.20;99.90
11055;DHT22;5580;50.106;8.702;2023-05-07T04:59:04;17.20;99.90
11055;DHT22;5580;50.106;8.702;2023-05-07T05:01:31;17.20;99.90
11055;DHT22;5580;50.106;8.702;2023-05-07T05:03:56;17.10;99.90
11055;DHT22;5580;50.106;8.702;2023-05-07T05:06:22;17.10;99.90
11055;DHT22;5580;50.106;8.702;2023-05-07T05:08:47;17.00;99.90
11055;DHT22;5580;50.106;8.702;2023-05-07T05:11:13;17.00;99.90
11055;DHT22;5580;50.106;8.702;2023-05-07T05:13:40;16.90;99.90
11055;DHT22;5580;50.106;8.702;2023-05-07T05:16:05;16.90;99.90
11055;DHT22;5580;50.106;8.702;2023-05-07T05:18:31;16.90;99.90
11055;DHT22;5580;50.106;8.702;2023-05-07T05:20:56;16.90;99.90
11055;DHT22;5580;50.106;8.702;2023-05-07T05:23:22;16.90;99.90
11055;DHT22;5580;50.106;8.702;2023-05-07T05:25:48;16.90;99.90
11055;DHT22;5580;50.106;8.702;2023-05-07T05:28:13;16.90;99.90
11055;DHT22;5580;50.106;8.702;2023-05-07T05:30:39;17.00;99.90
11055;DHT22;5580;50.106;8.702;2023-05-07T05:33:05;17.00;99.90
11055;DHT22;5580;50.106;8.702;2023-05-07T05:35:30;17.00;99.90
11055;DHT22;5580;50.106;8.702;2023-05-07T05:37:57;17.00;99.90
11055;DHT22;5580;50.106;8.702;2023-05-07T05:40:22;17.00;99.90
11055;DHT22;5580;50.106;8.702;2023-05-07T05:42:48;16.90;99.90
11055;DHT22;5580;50.106;8.702;2023-05-07T05:45:13;17.00;99.90
11055;DHT22;5580;50.106;8.702;2023-05-07T05:47:39;17.00;99.90
11055;DHT22;5580;50.106;8.702;2023-05-07T05:50:06;17.00;99.90
11055;DHT22;5580;50.106;8.702;2023-05-07T05:52:32;16.90;99.90
11055;DHT22;5580;50.106;8.702;2023-05-07T05:54:57;17.00;99.90
11055;DHT22;5580;50.106;8.702;2023-05-07T05:57:23;16.90;99.90
11055;DHT22;5580;50.106;8.702;2023-05-07T05:59:48;16.90;99.90
11055;DHT22;5580;50.106;8.702;2023-05-07T06:02:14;17.00;99.90
11055;DHT22;5580;50.106;8.702;2023-05-07T06:04:40;17.00;99.90
11055;DHT22;5580;50.106;8.702;2023-05-07T06:07:05;17.10;99.90
11055;DHT22;5580;50.106;8.702;2023-05-07T06:09:31;17.10;99.90
11055;DHT22;5580;50.106;8.702;2023-05-07T06:11:56;17.10;99.90
11055;DHT22;5580;50.106;8.702;2023-05-07T06:14:22;17.10;99.90
11055;DHT22;5580;50.106;8.702;2023-05-07T06:16:48;17.10;99.90
11055;DHT22;5580;50.106;8.702;2023-05-07T06:19:13;17.20;99.90
11055;DHT22;5580;50.106;8.702;2023-05-07T06:21:39;17.30;99.90
11055;DHT22;5580;50.106;8.702;2023-05-07T06:24:05;17.30;99.90
11055;DHT22;5580;50.106;8.702;2023-05-07T06:26:31;17.30;99.90
11055;DHT22;5580;50.106;8.702;2023-05-07T06:28:57;17.30;99.90
11055;DHT22;5580;50.106;8.702;2023-05-07T06:31:22;17.30;99.90
11055;DHT22;5580;50.106;8.702;2023-05-07T06:33:48;17.30;99.90
11055;DHT22;5580;50.106;8.702;2023-05-07T06:36:15;17.30;99.90
11055;DHT22;5580;50.106;8.702;2023-05-07T06:38:40;17.30;99.90
11055;DHT22;5580;50.106;8.702;2023-05-07T06:41:06;17.30;99.90
11055;DHT22;5580;50.106;8.702;2023-05-07T06:43:32;17.40;99.90
11055;DHT22;5580;50.106;8.702;2023-05-07T06:45:58;17.40;99.90
11055;DHT22;5580;50.106;8.702;2023-05-07T06:48:23;17.50;99.90
11055;DHT22;5580;50.106;8.702;2023-05-07T06:50:49;17.50;99.90
11055;DHT22;5580;50.106;8.702;2023-05-07T06:53:15;17.50;99.90
11055;DHT22;5580;50.106;8.702;2023-05-07T06:55:40;17.50;99.90
11055;DHT22;5580;50.106;8.702;2023-05-07T06:58:07;17.60;99.90
11055;DHT22;5580;50.106;8.702;2023-05-07T07:00:32;17.60;99.90
11055;DHT22;5580;50.106;8.702;2023-05-07T07:02:58;17.60;99.90
11055;DHT22;5580;50.106;8.702;2023-05-07T07:05:24;17.60;99.90
11055;DHT22;5580;50.106;8.702;2023-05-07T07:07:50;17.60;99.90
11055;DHT22;5580;50.106;8.702;2023-05-07T07:10:19;17.60;99.90
11055;DHT22;5580;50.106;8.702;2023-05-07T07:12:45;17.60;99.90
11055;DHT22;5580;50.106;8.702;2023-05-07T07:15:11;17.60;99.90
11055;DHT22;5580;50.106;8.702;2023-05-07T07:17:36;17.70;99.90
11055;DHT22;5580;50.106;8.702;2023-05-07T07:20:02;17.70;99.90
11055;DHT22;5580;50.106;8.702;2023-05-07T07:22:28;17.60;99.90
11055;DHT22;5580;50.106;8.702;2023-05-07T07:24:54;17.70;99.90
11055;DHT22;5580;50.106;8.702;2023-05-07T07:27:19;17.80;99.90
11055;DHT22;5580;50.106;8.702;2023-05-07T07:29:45;17.70;99.90
11055;DHT22;5580;50.106;8.702;2023-05-07T07:32:11;17.80;99.90
11055;DHT22;5580;50.106;8.702;2023-05-07T07:34:36;17.80;99.90
11055;DHT22;5580;50.106;8.702;2023-05-07T07:37:02;17.90;99.90
11055;DHT22;5580;50.106;8.702;2023-05-07T07:39:31;18.00;99.90
11055;DHT22;5580;50.106;8.702;2023-05-07T07:41:56;18.10;99.90
11055;DHT22;5580;50.106;8.702;2023-05-07T07:44:22;18.20;99.90
11055;DHT22;5580;50.106;8.702;2023-05-07T07:46:47;18.30;99.90
11055;DHT22;5580;50.106;8.702;2023-05-07T07:49:13;18.40;99.90
11055;DHT22;5580;50.106;8.702;2023-05-07T07:51:39;18.40;99.90
11055;DHT22;5580;50.106;8.702;2023-05-07T07:54:04;18.40;99.90
11055;DHT22;5580;50.106;8.702;2023-05-07T07:56:32;18.50;99.90
11055;DHT22;5580;50.106;8.702;2023-05-07T07:58:58;18.50;99.90
11055;DHT22;5580;50.106;8.702;2023-05-07T08:01:24;18.40;99.90
11055;DHT22;5580;50.106;8.702;2023-05-07T08:03:50;18.40;99.90
11055;DHT22;5580;50.106;8.702;2023-05-07T08:06:15;18.40;99.90
11055;DHT22;5580;50.106;8.702;2023-05-07T08:08:41;18.30;99.90
11055;DHT22;5580;50.106;8.702;2023-05-07T08:11:06;18.30;99.90
11055;DHT22;5580;50.106;8.702;2023-05-07T08:13:32;18.30;99.90
11055;DHT22;5580;50.106;8.702;2023-05-07T08:15:58;18.40;99.90
11055;DHT22;5580;50.106;8.702;2023-05-07T08:18:24;18.40;99.90
11055;DHT22;5580;50.106;8.702;2023-05-07T08:20:50;18.40;99.90
11055;DHT22;5580;50.106;8.702;2023-05-07T08:23:16;18.40;99.90
11055;DHT22;5580;50.106;8.702;2023-05-07T08:25:41;18.40;99.90
11055;DHT22;5580;50.106;8.702;2023-05-07T08:28:10;18.50;99.90
11055;DHT22;5580;50.106;8.702;2023-05-07T08:30:35;18.50;99.90
11055;DHT22;5580;50.106;8.702;2023-05-07T08:33:01;18.50;99.90
11055;DHT22;5580;50.106;8.702;2023-05-07T08:35:27;18.50;99.90
11055;DHT22;5580;50.106;8.702;2023-05-07T08:37:53;18.50;99.90
11055;DHT22;5580;50.106;8.702;2023-05-07T08:40:19;18.60;99.90
11055;DHT22;5580;50.106;8.702;2023-05-07T08:42:48;18.50;99.90
11055;DHT22;5580;50.106;8.702;2023-05-07T08:45:14;18.50;99.90
11055;DHT22;5580;50.106;8.702;2023-05-07T08:47:43;18.50;99.90
11055;DHT22;5580;50.106;8.702;2023-05-07T08:50:11;18.60;99.90
11055;DHT22;5580;50.106;8.702;2023-05-07T08:52:37;18.60;99.90
11055;DHT22;5580;50.106;8.702;2023-05-07T08:55:03;18.60;99.90
11055;DHT22;5580;50.106;8.702;2023-05-07T08:57:29;18.60;99.90
11055;DHT22;5580;50.106;8.702;2023-05-07T08:59:55;18.60;99.90
11055;DHT22;5580;50.106;8.702;2023-05-07T09:02:20;18.60;99.90
11055;DHT22;5580;50.106;8.702;2023-05-07T09:04:46;18.70;99.90
11055;DHT22;5580;50.106;8.702;2023-05-07T09:07:11;18.70;99.90
11055;DHT22;5580;50.106;8.702;2023-05-07T09:09:37;18.70;99.90
11055;DHT22;5580;50.106;8.702;2023-05-07T09:12:03;18.80;99.90
11055;DHT22;5580;50.106;8.702;2023-05-07T09:14:29;18.80;99.90
11055;DHT22;5580;50.106;8.702;2023-05-07T09:16:56;18.80;99.90
11055;DHT22;5580;50.106;8.702;2023-05-07T09:19:26;18.80;99.90
11055;DHT22;5580;50.106;8.702;2023-05-07T09:22:02;18.90;99.90
11055;DHT22;5580;50.106;8.702;2023-05-07T09:24:28;19.00;99.90
11055;DHT22;5580;50.106;8.702;2023-05-07T09:26:57;19.10;99.90
11055;DHT22;5580;50.106;8.702;2023-05-07T09:29:23;19.10;99.90
11055;DHT22;5580;50.106;8.702;2023-05-07T09:31:49;19.10;99.90
11055;DHT22;5580;50.106;8.702;2023-05-07T09:34:14;19.20;99.90
11055;DHT22;5580;50.106;8.702;2023-05-07T09:36:40;19.30;99.90
11055;DHT22;5580;50.106;8.702;2023-05-07T09:39:05;19.30;99.90
11055;DHT22;5580;50.106;8.702;2023-05-07T09:41:31;19.40;99.90
11055;DHT22;5580;50.106;8.702;2023-05-07T09:43:58;19.40;99.90
11055;DHT22;5580;50.106;8.702;2023-05-07T09:46:30;19.50;99.90
11055;DHT22;5580;50.106;8.702;2023-05-07T09:49:01;19.60;99.90
11055;DHT22;5580;50.106;8.702;2023-05-07T09:54:02;19.70;99.90
11055;DHT22;5580;50.106;8.702;2023-05-07T09:56:29;19.80;99.90
11055;DHT22;5580;50.106;8.702;2023-05-07T09:58:59;19.90;99.90
11055;DHT22;5580;50.106;8.702;2023-05-07T10:01:26;19.90;99.90
11055;DHT22;5580;50.106;8.702;2023-05-07T10:03:52;19.90;99.90
11055;DHT22;5580;50.106;8.702;2023-05-07T10:06:20;20.00;99.90
11055;DHT22;5580;50.106;8.702;2023-05-07T10:08:46;20.10;99.90
11055;DHT22;5580;50.106;8.702;2023-05-07T10:11:14;20.20;99.90
11055;DHT22;5580;50.106;8.702;2023-05-07T10:13:41;20.30;99.90
11055;DHT22;5580;50.106;8.702;2023-05-07T10:16:08;20.30;99.90
11055;DHT22;5580;50.106;8.702;2023-05-07T10:18:33;20.30;99.90
11055;DHT22;5580;50.106;8.702;2023-05-07T10:21:07;20.40;99.90
11055;DHT22;5580;50.106;8.702;2023-05-07T10:23:33;20.40;99.90
11055;DHT22;5580;50.106;8.702;2023-05-07T10:26:02;20.40;99.90
11055;DHT22;5580;50.106;8.702;2023-05-07T10:28:30;20.50;99.90
11055;DHT22;5580;50.106;8.702;2023-05-07T10:33:40;20.60;99.90
11055;DHT22;5580;50.106;8.702;2023-05-07T10:36:06;20.70;99.90
11055;DHT22;5580;50.106;8.702;2023-05-07T10:38:33;20.70;99.90
11055;DHT22;5580;50.106;8.702;2023-05-07T10:40:59;20.70;99.90
11055;DHT22;5580;50.106;8.702;2023-05-07T10:43:24;20.70;99.90
11055;DHT22;5580;50.106;8.702;2023-05-07T10:46:14;20.80;99.90
11055;DHT22;5580;50.106;8.702;2023-05-07T10:51:28;20.90;99.90
11055;DHT22;5580;50.106;8.702;2023-05-07T10:56:40;21.00;99.90
11055;DHT22;5580;50.106;8.702;2023-05-07T11:01:51;21.10;99.90
11055;DHT22;5580;50.106;8.702;2023-05-07T11:04:19;21.10;99.90
11055;DHT22;5580;50.106;8.702;2023-05-07T11:15:13;21.20;99.90
11055;DHT22;5580;50.106;8.702;2023-05-07T11:17:58;21.20;99.90
11055;DHT22;5580;50.106;8.702;2023-05-07T11:20:49;21.30;99.90
11055;DHT22;5580;50.106;8.702;2023-05-07T11:26:06;21.30;99.90
11055;DHT22;5580;50.106;8.702;2023-05-07T11:28:37;21.40;99.90
11055;DHT22;5580;50.106;8.702;2023-05-07T11:31:03;21.50;99.90
11055;DHT22;5580;50.106;8.702;2023-05-07T11:33:30;21.50;99.90
11055;DHT22;5580;50.106;8.702;2023-05-07T11:35:57;21.60;99.90
11055;DHT22;5580;50.106;8.702;2023-05-07T11:38:24;21.60;99.90
11055;DHT22;5580;50.106;8.702;2023-05-07T11:40:57;21.60;99.90
11055;DHT22;5580;50.106;8.702;2023-05-07T11:43:24;21.60;99.90
11055;DHT22;5580;50.106;8.702;2023-05-07T11:45:50;21.60;99.90
11055;DHT22;5580;50.106;8.702;2023-05-07T11:48:16;21.60;99.90
11055;DHT22;5580;50.106;8.702;2023-05-07T11:51:01;21.60;99.90
11055;DHT22;5580;50.106;8.702;2023-05-07T11:53:31;21.70;99.90
11055;DHT22;5580;50.106;8.702;2023-05-07T11:56:00;21.70;99.90
11055;DHT22;5580;50.106;8.702;2023-05-07T11:58:25;21.70;99.90
11055;DHT22;5580;50.106;8.702;2023-05-07T12:00:52;21.70;99.90
11055;DHT22;5580;50.106;8.702;2023-05-07T12:03:19;21.80;99.90
11055;DHT22;5580;50.106;8.702;2023-05-07T12:05:45;21.80;99.90
11055;DHT22;5580;50.106;8.702;2023-05-07T12:08:17;21.80;99.90
11055;DHT22;5580;50.106;8.702;2023-05-07T12:10:43;21.80;99.90
11055;DHT22;5580;50.106;8.702;2023-05-07T12:13:20;21.80;99.90
11055;DHT22;5580;50.106;8.702;2023-05-07T12:15:46;21.90;99.90
11055;DHT22;5580;50.106;8.702;2023-05-07T12:18:15;21.90;99.90
11055;DHT22;5580;50.106;8.702;2023-05-07T12:20:41;22.00;99.90
11055;DHT22;5580;50.106;8.702;2023-05-07T12:23:07;22.00;99.90
11055;DHT22;5580;50.106;8.702;2023-05-07T12:25:40;22.00;99.90
11055;DHT22;5580;50.106;8.702;2023-05-07T12:28:08;22.00;99.90
11055;DHT22;5580;50.106;8.702;2023-05-07T12:30:39;22.10;99.90
11055;DHT22;5580;50.106;8.702;2023-05-07T12:33:04;22.10;99.90
11055;DHT22;5580;50.106;8.702;2023-05-07T12:35:32;22.20;99.90
11055;DHT22;5580;50.106;8.702;2023-05-07T12:37:58;22.20;99.90
11055;DHT22;5580;50.106;8.702;2023-05-07T12:40:39;22.20;99.90
11055;DHT22;5580;50.106;8.702;2023-05-07T12:43:05;22.20;99.90
11055;DHT22;5580;50.106;8.702;2023-05-07T12:45:30;22.20;99.90
11055;DHT22;5580;50.106;8.702;2023-05-07T12:47:56;22.20;99.90
11055;DHT22;5580;50.106;8.702;2023-05-07T12:50:30;22.30;99.90
11055;DHT22;5580;50.106;8.702;2023-05-07T12:52:56;22.30;99.90
11055;DHT22;5580;50.106;8.702;2023-05-07T12:55:21;22.30;99.90
11055;DHT22;5580;50.106;8.702;2023-05-07T12:57:50;22.30;99.90
11055;DHT22;5580;50.106;8.702;2023-05-07T13:00:17;22.40;99.90
11055;DHT22;5580;50.106;8.702;2023-05-07T13:02:43;22.40;99.90
11055;DHT22;5580;50.106;8.702;2023-05-07T13:05:12;22.40;99.90
11055;DHT22;5580;50.106;8.702;2023-05-07T13:07:38;22.40;99.90
11055;DHT22;5580;50.106;8.702;2023-05-07T13:10:04;22.50;99.90
11055;DHT22;5580;50.106;8.702;2023-05-07T13:12:30;22.50;99.90
11055;DHT22;5580;50.106;8.702;2023-05-07T13:14:55;22.60;99.90
11055;DHT22;5580;50.106;8.702;2023-05-07T13:17:21;22.60;99.90
11055;DHT22;5580;50.106;8.702;2023-05-07T13:19:47;22.70;99.90
11055;DHT22;5580;50.106;8.702;2023-05-07T13:22:12;22.70;99.90
11055;DHT22;5580;50.106;8.702;2023-05-07T13:24:38;22.60;99.90
11055;DHT22;5580;50.106;8.702;2023-05-07T13:27:06;22.70;99.90
11055;DHT22;5580;50.106;8.702;2023-05-07T13:29:32;22.60;99.90
11055;DHT22;5580;50.106;8.702;2023-05-07T13:31:57;22.60;99.90
11055;DHT22;5580;50.106;8.702;2023-05-07T13:34:23;22.60;99.90
11055;DHT22;5580;50.106;8.702;2023-05-07T13:36:49;22.60;99.90
11055;DHT22;5580;50.106;8.702;2023-05-07T13:39:14;22.60;99.90
11055;DHT22;5580;50.106;8.702;2023-05-07T13:41:40;22.70;99.90
11055;DHT22;5580;50.106;8.702;2023-05-07T13:44:06;22.70;99.90
11055;DHT22;5580;50.106;8.702;2023-05-07T13:46:32;22.70;99.90
11055;DHT22;5580;50.106;8.702;2023-05-07T13:48:57;22.70;99.90
11055;DHT22;5580;50.106;8.702;2023-05-07T13:51:23;22.80;99.90
11055;DHT22;5580;50.106;8.702;2023-05-07T13:53:48;22.80;99.90
11055;DHT22;5580;50.106;8.702;2023-05-07T13:56:14;22.90;99.90
11055;DHT22;5580;50.106;8.702;2023-05-07T13:58:40;22.90;99.90
11055;DHT22;5580;50.106;8.702;2023-05-07T14:01:06;22.90;99.90
11055;DHT22;5580;50.106;8.702;2023-05-07T14:03:32;22.90;99.90
11055;DHT22;5580;50.106;8.702;2023-05-07T14:05:59;22.90;99.90
11055;DHT22;5580;50.106;8.702;2023-05-07T14:08:26;22.90;99.90
11055;DHT22;5580;50.106;8.702;2023-05-07T14:10:52;22.90;99.90
11055;DHT22;5580;50.106;8.702;2023-05-07T14:13:18;22.90;99.90
11055;DHT22;5580;50.106;8.702;2023-05-07T14:15:43;22.90;99.90
11055;DHT22;5580;50.106;8.702;2023-05-07T14:18:12;22.90;99.90
11055;DHT22;5580;50.106;8.702;2023-05-07T14:20:38;22.80;99.90
11055;DHT22;5580;50.106;8.702;2023-05-07T14:23:03;22.80;99.90
11055;DHT22;5580;50.106;8.702;2023-05-07T14:25:29;22.80;99.90
11055;DHT22;5580;50.106;8.702;2023-05-07T14:27:55;22.80;99.90
11055;DHT22;5580;50.106;8.702;2023-05-07T14:30:21;22.80;99.90
11055;DHT22;5580;50.106;8.702;2023-05-07T14:32:49;22.80;99.90
11055;DHT22;5580;50.106;8.702;2023-05-07T14:35:15;22.70;99.90
11055;DHT22;5580;50.106;8.702;2023-05-07T14:37:40;22.70;99.90
11055;DHT22;5580;50.106;8.702;2023-05-07T14:40:07;22.80;99.90
11055;DHT22;5580;50.106;8.702;2023-05-07T14:42:32;22.80;99.90
11055;DHT22;5580;50.106;8.702;2023-05-07T14:44:58;22.70;99.90
11055;DHT22;5580;50.106;8.702;2023-05-07T14:47:23;22.70;99.90
11055;DHT22;5580;50.106;8.702;2023-05-07T14:49:49;22.70;99.90
11055;DHT22;5580;50.106;8.702;2023-05-07T14:52:15;22.70;99.90
11055;DHT22;5580;50.106;8.702;2023-05-07T14:54:40;22.70;99.90
11055;DHT22;5580;50.106;8.702;2023-05-07T14:57:09;22.70;99.90
11055;DHT22;5580;50.106;8.702;2023-05-07T14:59:35;22.70;99.90
11055;DHT22;5580;50.106;8.702;2023-05-07T15:02:02;22.70;99.90
11055;DHT22;5580;50.106;8.702;2023-05-07T15:04:28;22.70;99.90
11055;DHT22;5580;50.106;8.702;2023-05-07T15:06:53;22.70;99.90
11055;DHT22;5580;50.106;8.702;2023-05-07T15:09:19;22.70;99.90
11055;DHT22;5580;50.106;8.702;2023-05-07T15:11:45;22.80;99.90
11055;DHT22;5580;50.106;8.702;2023-05-07T15:14:10;22.80;99.90
11055;DHT22;5580;50.106;8.702;2023-05-07T15:16:36;22.70;99.90
11055;DHT22;5580;50.106;8.702;2023-05-07T15:19:01;22.70;99.90
11055;DHT22;5580;50.106;8.702;2023-05-07T15:21:27;22.70;99.90
11055;DHT22;5580;50.106;8.702;2023-05-07T15:23:53;22.70;99.90
11055;DHT22;5580;50.106;8.702;2023-05-07T15:26:18;22.70;99.90
11055;DHT22;5580;50.106;8.702;2023-05-07T15:28:45;22.70;99.90
11055;DHT22;5580;50.106;8.702;2023-05-07T15:31:11;22.70;99.90
11055;DHT22;5580;50.106;8.702;2023-05-07T15:33:37;22.70;99.90
11055;DHT22;5580;50.106;8.702;2023-05-07T15:36:04;22.60;99.90
11055;DHT22;5580;50.106;8.702;2023-05-07T15:38:30;22.70;99.90
11055;DHT22;5580;50.106;8.702;2023-05-07T15:40:55;22.60;99.90
11055;DHT22;5580;50.106;8.702;2023-05-07T15:43:21;22.60;99.90
11055;DHT22;5580;50.106;8.702;2023-05-07T15:45:46;22.60;99.90
11055;DHT22;5580;50.106;8.702;2023-05-07T15:48:12;22.60;99.90
11055;DHT22;5580;50.106;8.702;2023-05-07T15:50:38;22.60;99.90
11055;DHT22;5580;50.106;8.702;2023-05-07T15:53:04;22.50;99.90
11055;DHT22;5580;50.106;8.702;2023-05-07T15:55:30;22.50;99.90
11055;DHT22;5580;50.106;8.702;2023-05-07T15:57:56;22.50;99.90
11055;DHT22;5580;50.106;8.702;2023-05-07T16:00:25;22.50;99.90
11055;DHT22;5580;50.106;8.702;2023-05-07T16:02:51;22.50;99.90
11055;DHT22;5580;50.106;8.702;2023-05-07T16:05:17;22.50;99.90